sensor_id;sensor_type;location;lat;lon;timestamp;P1;durP1;ratioP1;P2;durP2;ratioP2
24635;SDS011;12772;49.794;10.024;2024-02-23T00:03:26;0.30;;;0.30;;
24635;SDS011;12772;49.794;10.024;2024-02-23T00:07:28;0.50;;;0.50;;
24635;SDS011;12772;49.794;10.024;2024-02-23T00:11:30;0.88;;;0.60;;
24635;SDS011;12772;49.794;10.024;2024-02-23T00:15:33;0.63;;;0.63;;
24635;SDS011;12772;49.794;10.024;2024-02-23T00:19:35;0.40;;;0.40;;
24635;SDS011;12772;49.794;10.024;2024-02-23T00:23:37;0.73;;;0.70;;
24635;SDS011;12772;49.794;10.024;2024-02-23T00:27:39;0.35;;;0.35;;
24635;SDS011;12772;49.794;10.024;2024-02-23T00:31:42;1.00;;;0.70;;
24635;SDS011;12772;49.794;10.024;2024-02-23T00:35:45;0.60;;;0.60;;
24635;SDS011;12772;49.794;10.024;2024-02-23T00:39:47;0.65;;;0.50;;
24635;SDS011;12772;49.794;10.024;2024-02-23T00:43:49;0.82;;;0.82;;
24635;SDS011;12772;49.794;10.024;2024-02-23T00:47:51;0.50;;;0.50;;
24635;SDS011;12772;49.794;10.024;2024-02-23T00:51:53;0.80;;;0.77;;
24635;SDS011;12772;49.794;10.024;2024-02-23T00:55:56;1.45;;;0.70;;
24635;SDS011;12772;49.794;10.024;2024-02-23T00:59:59;1.85;;;0.80;;
24635;SDS011;12772;49.794;10.024;2024-02-23T01:04:01;2.30;;;0.77;;
24635;SDS011;12772;49.794;10.024;2024-02-23T01:08:03;1.20;;;0.80;;
24635;SDS011;12772;49.794;10.024;2024-02-23T01:12:05;2.22;;;0.70;;
24635;SDS011;12772;49.794;10.024;2024-02-23T01:16:07;1.45;;;0.73;;
24635;SDS011;12772;49.794;10.024;2024-02-23T01:20:09;2.78;;;0.90;;
24635;SDS011;12772;49.794;10.024;2024-02-23T01:24:11;1.65;;;1.20;;
24635;SDS011;12772;49.794;10.024;2024-02-23T01:28:13;1.23;;;1.10;;
24635;SDS011;12772;49.794;10.024;2024-02-23T01:32:15;1.13;;;1.00;;
24635;SDS011;12772;49.794;10.024;2024-02-23T01:36:17;1.17;;;1.08;;
24635;SDS011;12772;49.794;10.024;2024-02-23T01:40:19;1.42;;;1.15;;
24635;SDS011;12772;49.794;10.024;2024-02-23T01:44:21;1.63;;;1.02;;
24635;SDS011;12772;49.794;10.024;2024-02-23T01:48:23;3.72;;;1.63;;
24635;SDS011;12772;49.794;10.024;2024-02-23T01:52:25;3.28;;;1.20;;
24635;SDS011;12772;49.794;10.024;2024-02-23T01:56:27;1.20;;;1.10;;
24635;SDS011;12772;49.794;10.024;2024-02-23T02:00:30;2.67;;;1.40;;
24635;SDS011;12772;49.794;10.024;2024-02-23T02:04:32;4.15;;;1.50;;
24635;SDS011;12772;49.794;10.024;2024-02-23T02:08:34;1.98;;;1.20;;
24635;SDS011;12772;49.794;10.024;2024-02-23T02:12:36;0.90;;;0.80;;
24635;SDS011;12772;49.794;10.024;2024-02-23T02:16:38;1.05;;;0.95;;
24635;SDS011;12772;49.794;10.024;2024-02-23T02:20:43;1.33;;;1.02;;
24635;SDS011;12772;49.794;10.024;2024-02-23T02:24:53;2.05;;;0.90;;
24635;SDS011;12772;49.794;10.024;2024-02-23T02:28:55;1.17;;;0.80;;
24635;SDS011;12772;49.794;10.024;2024-02-23T02:32:57;1.65;;;0.73;;
24635;SDS011;12772;49.794;10.024;2024-02-23T02:37:00;1.08;;;0.90;;
24635;SDS011;12772;49.794;10.024;2024-02-23T02:41:02;1.92;;;0.80;;
24635;SDS011;12772;49.794;10.024;2024-02-23T02:45:05;2.08;;;1.05;;
24635;SDS011;12772;49.794;10.024;2024-02-23T02:49:07;0.75;;;0.60;;
24635;SDS011;12772;49.794;10.024;2024-02-23T02:53:09;1.92;;;0.75;;
24635;SDS011;12772;49.794;10.024;2024-02-23T02:57:11;3.17;;;1.42;;
24635;SDS011;12772;49.794;10.024;2024-02-23T03:01:15;1.88;;;0.73;;
24635;SDS011;12772;49.794;10.024;2024-02-23T03:05:17;2.97;;;1.38;;
24635;SDS011;12772;49.794;10.024;2024-02-23T03:09:19;1.65;;;1.08;;
24635;SDS011;12772;49.794;10.024;2024-02-23T03:13:21;2.53;;;1.08;;
24635;SDS011;12772;49.794;10.024;2024-02-23T03:17:23;1.55;;;0.90;;
24635;SDS011;12772;49.794;10.024;2024-02-23T03:21:25;2.60;;;1.00;;
24635;SDS011;12772;49.794;10.024;2024-02-23T03:25:27;1.75;;;1.05;;
24635;SDS011;12772;49.794;10.024;2024-02-23T03:29:29;0.60;;;0.60;;
24635;SDS011;12772;49.794;10.024;2024-02-23T03:33:32;2.20;;;0.60;;
24635;SDS011;12772;49.794;10.024;2024-02-23T03:37:34;0.68;;;0.68;;
24635;SDS011;12772;49.794;10.024;2024-02-23T03:41:36;2.38;;;1.10;;
24635;SDS011;12772;49.794;10.024;2024-02-23T03:45:38;4.68;;;1.42;;
24635;SDS011;12772;49.794;10.024;2024-02-23T03:49:40;1.92;;;0.82;;
24635;SDS011;12772;49.794;10.024;2024-02-23T03:53:42;2.30;;;1.13;;
24635;SDS011;12772;49.794;10.024;2024-02-23T03:57:44;1.20;;;0.82;;
24635;SDS011;12772;49.794;10.024;2024-02-23T04:01:46;1.98;;;0.93;;
24635;SDS011;12772;49.794;10.024;2024-02-23T04:05:48;1.88;;;0.95;;
24635;SDS011;12772;49.794;10.024;2024-02-23T04:09:50;2.60;;;0.73;;
24635;SDS011;12772;49.794;10.024;2024-02-23T04:13:55;1.77;;;1.10;;
24635;SDS011;12772;49.794;10.024;2024-02-23T04:17:57;3.75;;;1.48;;
24635;SDS011;12772;49.794;10.024;2024-02-23T04:21:59;2.55;;;1.38;;
24635;SDS011;12772;49.794;10.024;2024-02-23T04:26:01;2.95;;;1.15;;
24635;SDS011;12772;49.794;10.024;2024-02-23T04:30:03;2.85;;;1.08;;
24635;SDS011;12772;49.794;10.024;2024-02-23T04:34:06;4.00;;;1.20;;
24635;SDS011;12772;49.794;10.024;2024-02-23T04:38:08;4.57;;;1.25;;
24635;SDS011;12772;49.794;10.024;2024-02-23T04:42:10;3.40;;;1.10;;
24635;SDS011;12772;49.794;10.024;2024-02-23T04:46:12;2.38;;;1.05;;
24635;SDS011;12772;49.794;10.024;2024-02-23T04:50:14;3.95;;;0.90;;
24635;SDS011;12772;49.794;10.024;2024-02-23T04:54:16;3.92;;;0.95;;
24635;SDS011;12772;49.794;10.024;2024-02-23T04:58:18;1.65;;;1.10;;
24635;SDS011;12772;49.794;10.024;2024-02-23T05:02:21;1.02;;;0.90;;
24635;SDS011;12772;49.794;10.024;2024-02-23T05:06:23;1.23;;;0.73;;
24635;SDS011;12772;49.794;10.024;2024-02-23T05:10:25;1.95;;;0.88;;
24635;SDS011;12772;49.794;10.024;2024-02-23T05:14:27;5.70;;;1.10;;
24635;SDS011;12772;49.794;10.024;2024-02-23T05:18:29;2.33;;;0.88;;
24635;SDS011;12772;49.794;10.024;2024-02-23T05:22:31;0.65;;;0.65;;
24635;SDS011;12772;49.794;10.024;2024-02-23T05:26:33;1.75;;;0.68;;
24635;SDS011;12772;49.794;10.024;2024-02-23T05:30:35;2.13;;;0.73;;
24635;SDS011;12772;49.794;10.024;2024-02-23T05:34:37;1.90;;;0.98;;
24635;SDS011;12772;49.794;10.024;2024-02-23T05:38:39;1.23;;;0.80;;
24635;SDS011;12772;49.794;10.024;2024-02-23T05:42:41;1.75;;;0.80;;
24635;SDS011;12772;49.794;10.024;2024-02-23T05:46:43;0.90;;;0.90;;
24635;SDS011;12772;49.794;10.024;2024-02-23T05:50:45;0.95;;;0.80;;
24635;SDS011;12772;49.794;10.024;2024-02-23T05:54:47;2.25;;;1.08;;
24635;SDS011;12772;49.794;10.024;2024-02-23T05:58:49;3.45;;;0.85;;
24635;SDS011;12772;49.794;10.024;2024-02-23T06:02:51;1.00;;;0.82;;
24635;SDS011;12772;49.794;10.024;2024-02-23T06:06:53;2.65;;;1.10;;
24635;SDS011;12772;49.794;10.024;2024-02-23T06:10:55;2.20;;;1.33;;
24635;SDS011;12772;49.794;10.024;2024-02-23T06:14:59;2.50;;;1.10;;
24635;SDS011;12772;49.794;10.024;2024-02-23T06:19:01;5.70;;;1.30;;
24635;SDS011;12772;49.794;10.024;2024-02-23T06:23:04;1.38;;;1.02;;
24635;SDS011;12772;49.794;10.024;2024-02-23T06:27:06;1.30;;;1.17;;
24635;SDS011;12772;49.794;10.024;2024-02-23T06:31:08;3.60;;;1.13;;
24635;SDS011;12772;49.794;10.024;2024-02-23T06:35:11;1.23;;;0.75;;
24635;SDS011;12772;49.794;10.024;2024-02-23T06:39:13;3.50;;;1.50;;
24635;SDS011;12772;49.794;10.024;2024-02-23T06:43:18;1.65;;;1.00;;
24635;SDS011;12772;49.794;10.024;2024-02-23T06:47:20;1.95;;;1.17;;
24635;SDS011;12772;49.794;10.024;2024-02-23T06:51:22;2.20;;;1.10;;
24635;SDS011;12772;49.794;10.024;2024-02-23T06:55:24;3.40;;;1.33;;
24635;SDS011;12772;49.794;10.024;2024-02-23T06:59:26;7.40;;;6.20;;
24635;SDS011;12772;49.794;10.024;2024-02-23T07:03:28;4.63;;;2.17;;
24635;SDS011;12772;49.794;10.024;2024-02-23T07:07:31;4.68;;;2.58;;
24635;SDS011;12772;49.794;10.024;2024-02-23T07:11:33;3.72;;;3.00;;
24635;SDS011;12772;49.794;10.024;2024-02-23T07:15:35;3.30;;;1.80;;
24635;SDS011;12772;49.794;10.024;2024-02-23T07:19:37;1.83;;;1.73;;
24635;SDS011;12772;49.794;10.024;2024-02-23T07:23:39;3.60;;;2.13;;
24635;SDS011;12772;49.794;10.024;2024-02-23T07:27:42;3.63;;;2.88;;
24635;SDS011;12772;49.794;10.024;2024-02-23T07:31:44;2.63;;;2.42;;
24635;SDS011;12772;49.794;10.024;2024-02-23T07:35:46;2.13;;;1.83;;
24635;SDS011;12772;49.794;10.024;2024-02-23T07:39:48;3.20;;;2.25;;
24635;SDS011;12772;49.794;10.024;2024-02-23T07:43:50;5.57;;;4.85;;
24635;SDS011;12772;49.794;10.024;2024-02-23T07:47:52;5.50;;;2.97;;
24635;SDS011;12772;49.794;10.024;2024-02-23T07:51:54;3.75;;;1.92;;
24635;SDS011;12772;49.794;10.024;2024-02-23T07:55:56;6.82;;;1.88;;
24635;SDS011;12772;49.794;10.024;2024-02-23T07:59:59;2.45;;;1.35;;
24635;SDS011;12772;49.794;10.024;2024-02-23T08:04:01;2.25;;;1.83;;
24635;SDS011;12772;49.794;10.024;2024-02-23T08:08:04;7.13;;;2.55;;
24635;SDS011;12772;49.794;10.024;2024-02-23T08:12:07;3.15;;;1.70;;
24635;SDS011;12772;49.794;10.024;2024-02-23T08:16:09;3.58;;;1.33;;
24635;SDS011;12772;49.794;10.024;2024-02-23T08:20:11;3.83;;;1.73;;
24635;SDS011;12772;49.794;10.024;2024-02-23T08:24:13;7.45;;;1.63;;
24635;SDS011;12772;49.794;10.024;2024-02-23T08:28:15;5.78;;;1.50;;
24635;SDS011;12772;49.794;10.024;2024-02-23T08:32:18;2.35;;;1.17;;
24635;SDS011;12772;49.794;10.024;2024-02-23T08:36:20;2.55;;;1.50;;
24635;SDS011;12772;49.794;10.024;2024-02-23T08:40:22;3.97;;;1.45;;
24635;SDS011;12772;49.794;10.024;2024-02-23T08:44:24;3.17;;;1.20;;
24635;SDS011;12772;49.794;10.024;2024-02-23T08:48:27;2.80;;;1.08;;
24635;SDS011;12772;49.794;10.024;2024-02-23T08:52:28;4.68;;;1.60;;
24635;SDS011;12772;49.794;10.024;2024-02-23T08:56:30;3.33;;;1.48;;
24635;SDS011;12772;49.794;10.024;2024-02-23T09:00:33;1.77;;;1.10;;
24635;SDS011;12772;49.794;10.024;2024-02-23T09:04:35;2.90;;;1.77;;
24635;SDS011;12772;49.794;10.024;2024-02-23T09:08:37;4.28;;;1.40;;
24635;SDS011;12772;49.794;10.024;2024-02-23T09:12:39;3.13;;;1.65;;
24635;SDS011;12772;49.794;10.024;2024-02-23T09:16:41;8.60;;;2.22;;
24635;SDS011;12772;49.794;10.024;2024-02-23T09:20:43;5.20;;;1.98;;
24635;SDS011;12772;49.794;10.024;2024-02-23T09:24:45;3.22;;;1.42;;
24635;SDS011;12772;49.794;10.024;2024-02-23T09:28:47;3.60;;;1.48;;
24635;SDS011;12772;49.794;10.024;2024-02-23T09:32:49;4.50;;;1.10;;
24635;SDS011;12772;49.794;10.024;2024-02-23T09:36:51;1.00;;;0.80;;
24635;SDS011;12772;49.794;10.024;2024-02-23T09:40:53;2.15;;;1.02;;
24635;SDS011;12772;49.794;10.024;2024-02-23T09:44:59;2.15;;;1.50;;
24635;SDS011;12772;49.794;10.024;2024-02-23T09:49:02;3.30;;;1.67;;
24635;SDS011;12772;49.794;10.024;2024-02-23T09:53:06;3.28;;;1.52;;
24635;SDS011;12772;49.794;10.024;2024-02-23T09:57:11;2.20;;;1.20;;
24635;SDS011;12772;49.794;10.024;2024-02-23T10:01:14;3.85;;;1.30;;
24635;SDS011;12772;49.794;10.024;2024-02-23T10:05:32;4.85;;;1.40;;
24635;SDS011;12772;49.794;10.024;2024-02-23T10:09:34;2.65;;;2.00;;
24635;SDS011;12772;49.794;10.024;2024-02-23T10:13:37;3.67;;;1.20;;
24635;SDS011;12772;49.794;10.024;2024-02-23T10:17:39;1.70;;;1.08;;
24635;SDS011;12772;49.794;10.024;2024-02-23T10:21:41;2.58;;;1.33;;
24635;SDS011;12772;49.794;10.024;2024-02-23T10:25:43;3.85;;;1.27;;
24635;SDS011;12772;49.794;10.024;2024-02-23T10:29:48;6.38;;;1.33;;
24635;SDS011;12772;49.794;10.024;2024-02-23T10:33:51;3.40;;;1.42;;
24635;SDS011;12772;49.794;10.024;2024-02-23T10:37:53;3.92;;;1.70;;
24635;SDS011;12772;49.794;10.024;2024-02-23T10:41:57;2.65;;;1.33;;
24635;SDS011;12772;49.794;10.024;2024-02-23T10:46:00;4.40;;;1.27;;
24635;SDS011;12772;49.794;10.024;2024-02-23T10:50:03;2.25;;;1.17;;
24635;SDS011;12772;49.794;10.024;2024-02-23T10:54:06;3.22;;;1.33;;
24635;SDS011;12772;49.794;10.024;2024-02-23T10:58:08;2.40;;;1.08;;
24635;SDS011;12772;49.794;10.024;2024-02-23T11:02:18;2.38;;;1.42;;
24635;SDS011;12772;49.794;10.024;2024-02-23T11:06:27;4.40;;;1.50;;
24635;SDS011;12772;49.794;10.024;2024-02-23T11:10:29;3.30;;;1.30;;
24635;SDS011;12772;49.794;10.024;2024-02-23T11:14:31;2.72;;;1.20;;
24635;SDS011;12772;49.794;10.024;2024-02-23T11:18:40;2.42;;;1.60;;
24635;SDS011;12772;49.794;10.024;2024-02-23T11:22:42;3.85;;;1.23;;
24635;SDS011;12772;49.794;10.024;2024-02-23T11:26:44;3.40;;;2.00;;
24635;SDS011;12772;49.794;10.024;2024-02-23T11:30:50;2.50;;;1.27;;
24635;SDS011;12772;49.794;10.024;2024-02-23T11:34:58;2.55;;;1.20;;
24635;SDS011;12772;49.794;10.024;2024-02-23T11:39:00;2.45;;;1.20;;
24635;SDS011;12772;49.794;10.024;2024-02-23T11:43:03;2.17;;;1.15;;
24635;SDS011;12772;49.794;10.024;2024-02-23T11:47:06;2.67;;;1.63;;
24635;SDS011;12772;49.794;10.024;2024-02-23T11:51:09;3.63;;;2.45;;
24635;SDS011;12772;49.794;10.024;2024-02-23T11:55:11;3.70;;;1.65;;
24635;SDS011;12772;49.794;10.024;2024-02-23T11:59:15;2.95;;;1.27;;
24635;SDS011;12772;49.794;10.024;2024-02-23T12:03:17;2.92;;;1.00;;
24635;SDS011;12772;49.794;10.024;2024-02-23T12:07:19;2.95;;;1.63;;
24635;SDS011;12772;49.794;10.024;2024-02-23T12:11:22;3.08;;;1.63;;
24635;SDS011;12772;49.794;10.024;2024-02-23T12:15:24;1.95;;;1.40;;
24635;SDS011;12772;49.794;10.024;2024-02-23T12:19:29;1.27;;;1.00;;
24635;SDS011;12772;49.794;10.024;2024-02-23T12:23:41;1.92;;;1.10;;
24635;SDS011;12772;49.794;10.024;2024-02-23T12:27:44;4.55;;;1.40;;
24635;SDS011;12772;49.794;10.024;2024-02-23T12:31:46;1.70;;;1.33;;
24635;SDS011;12772;49.794;10.024;2024-02-23T12:35:48;2.35;;;1.08;;
24635;SDS011;12772;49.794;10.024;2024-02-23T12:39:50;1.88;;;1.30;;
24635;SDS011;12772;49.794;10.024;2024-02-23T12:43:52;2.60;;;1.70;;
24635;SDS011;12772;49.794;10.024;2024-02-23T12:47:54;3.30;;;1.38;;
24635;SDS011;12772;49.794;10.024;2024-02-23T12:51:56;2.42;;;1.20;;
24635;SDS011;12772;49.794;10.024;2024-02-23T12:55:58;1.83;;;1.10;;
24635;SDS011;12772;49.794;10.024;2024-02-23T13:00:19;1.77;;;1.20;;
24635;SDS011;12772;49.794;10.024;2024-02-23T13:04:21;4.43;;;1.10;;
24635;SDS011;12772;49.794;10.024;2024-02-23T13:08:23;6.03;;;1.10;;
24635;SDS011;12772;49.794;10.024;2024-02-23T13:12:25;1.80;;;1.08;;
24635;SDS011;12772;49.794;10.024;2024-02-23T13:16:27;2.67;;;1.13;;
24635;SDS011;12772;49.794;10.024;2024-02-23T13:20:30;2.22;;;0.98;;
24635;SDS011;12772;49.794;10.024;2024-02-23T13:24:32;1.20;;;0.98;;
24635;SDS011;12772;49.794;10.024;2024-02-23T13:28:34;0.98;;;0.90;;
24635;SDS011;12772;49.794;10.024;2024-02-23T13:32:36;2.63;;;1.17;;
24635;SDS011;12772;49.794;10.024;2024-02-23T13:36:38;2.28;;;1.60;;
24635;SDS011;12772;49.794;10.024;2024-02-23T13:40:40;3.17;;;1.67;;
24635;SDS011;12772;49.794;10.024;2024-02-23T13:44:42;4.38;;;1.45;;
24635;SDS011;12772;49.794;10.024;2024-02-23T13:48:45;1.00;;;0.90;;
24635;SDS011;12772;49.794;10.024;2024-02-23T13:52:51;1.95;;;1.00;;
24635;SDS011;12772;49.794;10.024;2024-02-23T13:56:53;2.38;;;1.00;;
24635;SDS011;12772;49.794;10.024;2024-02-23T14:00:55;1.20;;;1.10;;
24635;SDS011;12772;49.794;10.024;2024-02-23T14:05:01;2.53;;;1.10;;
24635;SDS011;12772;49.794;10.024;2024-02-23T14:09:04;4.43;;;1.77;;
24635;SDS011;12772;49.794;10.024;2024-02-23T14:13:06;1.58;;;1.42;;
24635;SDS011;12772;49.794;10.024;2024-02-23T14:17:08;1.65;;;1.38;;
24635;SDS011;12772;49.794;10.024;2024-02-23T14:21:10;1.83;;;1.27;;
24635;SDS011;12772;49.794;10.024;2024-02-23T14:25:14;1.50;;;1.30;;
24635;SDS011;12772;49.794;10.024;2024-02-23T14:29:16;2.95;;;1.33;;
24635;SDS011;12772;49.794;10.024;2024-02-23T14:33:19;4.13;;;1.55;;
24635;SDS011;12772;49.794;10.024;2024-02-23T14:37:21;3.17;;;1.35;;
24635;SDS011;12772;49.794;10.024;2024-02-23T14:41:23;2.60;;;1.20;;
24635;SDS011;12772;49.794;10.024;2024-02-23T14:45:25;3.95;;;1.58;;
24635;SDS011;12772;49.794;10.024;2024-02-23T14:49:28;3.20;;;1.95;;
24635;SDS011;12772;49.794;10.024;2024-02-23T14:53:30;6.65;;;1.52;;
24635;SDS011;12772;49.794;10.024;2024-02-23T14:57:32;1.67;;;1.35;;
24635;SDS011;12772;49.794;10.024;2024-02-23T15:01:36;2.35;;;1.02;;
24635;SDS011;12772;49.794;10.024;2024-02-23T15:05:41;2.55;;;1.27;;
24635;SDS011;12772;49.794;10.024;2024-02-23T15:09:43;2.22;;;1.20;;
24635;SDS011;12772;49.794;10.024;2024-02-23T15:13:45;4.45;;;1.50;;
24635;SDS011;12772;49.794;10.024;2024-02-23T15:17:47;1.83;;;1.50;;
24635;SDS011;12772;49.794;10.024;2024-02-23T15:21:49;4.72;;;1.80;;
24635;SDS011;12772;49.794;10.024;2024-02-23T15:25:53;5.07;;;2.22;;
24635;SDS011;12772;49.794;10.024;2024-02-23T15:29:55;3.08;;;1.20;;
24635;SDS011;12772;49.794;10.024;2024-02-23T15:33:57;1.38;;;1.27;;
24635;SDS011;12772;49.794;10.024;2024-02-23T15:38:00;2.58;;;1.50;;
24635;SDS011;12772;49.794;10.024;2024-02-23T15:42:02;4.10;;;1.52;;
24635;SDS011;12772;49.794;10.024;2024-02-23T15:46:04;2.40;;;1.50;;
24635;SDS011;12772;49.794;10.024;2024-02-23T15:50:06;1.92;;;1.30;;
24635;SDS011;12772;49.794;10.024;2024-02-23T15:54:08;4.03;;;1.88;;
24635;SDS011;12772;49.794;10.024;2024-02-23T15:58:10;5.88;;;3.40;;
24635;SDS011;12772;49.794;10.024;2024-02-23T16:02:15;3.92;;;1.40;;
24635;SDS011;12772;49.794;10.024;2024-02-23T16:06:17;5.07;;;2.53;;
24635;SDS011;12772;49.794;10.024;2024-02-23T16:10:19;2.25;;;1.80;;
24635;SDS011;12772;49.794;10.024;2024-02-23T16:14:21;2.90;;;1.50;;
24635;SDS011;12772;49.794;10.024;2024-02-23T16:18:23;1.65;;;1.40;;
24635;SDS011;12772;49.794;10.024;2024-02-23T16:22:25;3.03;;;1.58;;
24635;SDS011;12772;49.794;10.024;2024-02-23T16:26:28;1.30;;;1.20;;
24635;SDS011;12772;49.794;10.024;2024-02-23T16:30:37;2.85;;;1.63;;
24635;SDS011;12772;49.794;10.024;2024-02-23T16:34:39;2.58;;;1.20;;
24635;SDS011;12772;49.794;10.024;2024-02-23T16:38:41;3.60;;;2.20;;
24635;SDS011;12772;49.794;10.024;2024-02-23T16:42:43;3.20;;;1.90;;
24635;SDS011;12772;49.794;10.024;2024-02-23T16:46:48;3.28;;;1.55;;
24635;SDS011;12772;49.794;10.024;2024-02-23T16:50:51;3.10;;;1.60;;
24635;SDS011;12772;49.794;10.024;2024-02-23T16:54:53;2.28;;;1.40;;
24635;SDS011;12772;49.794;10.024;2024-02-23T16:58:55;2.58;;;1.73;;
24635;SDS011;12772;49.794;10.024;2024-02-23T17:03:00;2.10;;;1.50;;
24635;SDS011;12772;49.794;10.024;2024-02-23T17:07:02;4.13;;;2.03;;
24635;SDS011;12772;49.794;10.024;2024-02-23T17:11:05;8.05;;;3.22;;
24635;SDS011;12772;49.794;10.024;2024-02-23T17:15:08;4.47;;;2.38;;
24635;SDS011;12772;49.794;10.024;2024-02-23T17:19:11;3.40;;;1.92;;
24635;SDS011;12772;49.794;10.024;2024-02-23T17:23:13;3.90;;;2.08;;
24635;SDS011;12772;49.794;10.024;2024-02-23T17:27:16;3.05;;;2.15;;
24635;SDS011;12772;49.794;10.024;2024-02-23T17:31:20;3.55;;;2.22;;
24635;SDS011;12772;49.794;10.024;2024-02-23T17:35:22;2.95;;;2.13;;
24635;SDS011;12772;49.794;10.024;2024-02-23T17:39:24;3.80;;;1.98;;
24635;SDS011;12772;49.794;10.024;2024-02-23T17:43:26;2.42;;;1.13;;
24635;SDS011;12772;49.794;10.024;2024-02-23T17:47:28;3.53;;;1.30;;
24635;SDS011;12772;49.794;10.024;2024-02-23T17:51:30;1.92;;;1.73;;
24635;SDS011;12772;49.794;10.024;2024-02-23T17:55:32;2.30;;;1.60;;
24635;SDS011;12772;49.794;10.024;2024-02-23T17:59:34;4.65;;;2.70;;
24635;SDS011;12772;49.794;10.024;2024-02-23T18:03:37;4.38;;;1.90;;
24635;SDS011;12772;49.794;10.024;2024-02-23T18:07:39;2.17;;;1.55;;
24635;SDS011;12772;49.794;10.024;2024-02-23T18:11:41;3.22;;;2.10;;
24635;SDS011;12772;49.794;10.024;2024-02-23T18:15:43;1.67;;;1.33;;
24635;SDS011;12772;49.794;10.024;2024-02-23T18:19:47;1.83;;;1.65;;
24635;SDS011;12772;49.794;10.024;2024-02-23T18:23:49;2.75;;;1.38;;
24635;SDS011;12772;49.794;10.024;2024-02-23T18:27:51;2.13;;;1.45;;
24635;SDS011;12772;49.794;10.024;2024-02-23T18:31:53;2.03;;;1.40;;
24635;SDS011;12772;49.794;10.024;2024-02-23T18:35:55;5.18;;;2.20;;
24635;SDS011;12772;49.794;10.024;2024-02-23T18:39:57;3.50;;;1.50;;
24635;SDS011;12772;49.794;10.024;2024-02-23T18:44:03;2.90;;;1.60;;
24635;SDS011;12772;49.794;10.024;2024-02-23T18:48:05;3.45;;;1.40;;
24635;SDS011;12772;49.794;10.024;2024-02-23T18:52:08;3.92;;;1.92;;
24635;SDS011;12772;49.794;10.024;2024-02-23T18:56:10;2.95;;;1.75;;
24635;SDS011;12772;49.794;10.024;2024-02-23T19:00:12;2.42;;;1.70;;
24635;SDS011;12772;49.794;10.024;2024-02-23T19:04:14;5.15;;;2.88;;
24635;SDS011;12772;49.794;10.024;2024-02-23T19:08:16;3.45;;;2.65;;
24635;SDS011;12772;49.794;10.024;2024-02-23T19:12:18;4.68;;;2.45;;
24635;SDS011;12772;49.794;10.024;2024-02-23T19:16:20;3.30;;;1.98;;
24635;SDS011;12772;49.794;10.024;2024-02-23T19:20:22;7.82;;;4.63;;
24635;SDS011;12772;49.794;10.024;2024-02-23T19:24:24;6.70;;;5.55;;
24635;SDS011;12772;49.794;10.024;2024-02-23T19:28:29;5.55;;;4.63;;
24635;SDS011;12772;49.794;10.024;2024-02-23T19:32:31;5.25;;;4.15;;
24635;SDS011;12772;49.794;10.024;2024-02-23T19:36:33;6.22;;;3.90;;
24635;SDS011;12772;49.794;10.024;2024-02-23T19:40:35;3.47;;;3.10;;
24635;SDS011;12772;49.794;10.024;2024-02-23T19:44:37;4.35;;;2.55;;
24635;SDS011;12772;49.794;10.024;2024-02-23T19:48:40;6.00;;;3.95;;
24635;SDS011;12772;49.794;10.024;2024-02-23T19:52:46;6.15;;;3.85;;
24635;SDS011;12772;49.794;10.024;2024-02-23T19:56:48;6.32;;;4.18;;
24635;SDS011;12772;49.794;10.024;2024-02-23T20:00:50;8.35;;;3.85;;
24635;SDS011;12772;49.794;10.024;2024-02-23T20:04:52;4.10;;;3.67;;
24635;SDS011;12772;49.794;10.024;2024-02-23T20:08:55;5.18;;;3.70;;
24635;SDS011;12772;49.794;10.024;2024-02-23T20:12:57;5.65;;;3.50;;
24635;SDS011;12772;49.794;10.024;2024-02-23T20:16:59;6.65;;;3.35;;
24635;SDS011;12772;49.794;10.024;2024-02-23T20:21:01;6.07;;;3.80;;
24635;SDS011;12772;49.794;10.024;2024-02-23T20:25:04;6.85;;;4.35;;
24635;SDS011;12772;49.794;10.024;2024-02-23T20:29:06;5.47;;;3.47;;
24635;SDS011;12772;49.794;10.024;2024-02-23T20:33:09;6.55;;;4.00;;
24635;SDS011;12772;49.794;10.024;2024-02-23T20:37:12;7.32;;;4.22;;
24635;SDS011;12772;49.794;10.024;2024-02-23T20:41:14;4.50;;;3.88;;
24635;SDS011;12772;49.794;10.024;2024-02-23T20:45:16;3.63;;;3.03;;
24635;SDS011;12772;49.794;10.024;2024-02-23T20:49:19;3.17;;;2.30;;
24635;SDS011;12772;49.794;10.024;2024-02-23T20:53:21;2.47;;;2.03;;
24635;SDS011;12772;49.794;10.024;2024-02-23T20:57:23;4.07;;;2.45;;
24635;SDS011;12772;49.794;10.024;2024-02-23T21:01:25;4.93;;;3.35;;
24635;SDS011;12772;49.794;10.024;2024-02-23T21:05:27;4.30;;;2.83;;
24635;SDS011;12772;49.794;10.024;2024-02-23T21:09:29;2.90;;;2.03;;
24635;SDS011;12772;49.794;10.024;2024-02-23T21:13:31;4.60;;;2.30;;
24635;SDS011;12772;49.794;10.024;2024-02-23T21:17:34;6.18;;;3.00;;
24635;SDS011;12772;49.794;10.024;2024-02-23T21:21:36;3.40;;;2.30;;
24635;SDS011;12772;49.794;10.024;2024-02-23T21:25:39;3.10;;;2.25;;
24635;SDS011;12772;49.794;10.024;2024-02-23T21:29:41;2.90;;;2.08;;
24635;SDS011;12772;49.794;10.024;2024-02-23T21:33:44;3.90;;;2.72;;
24635;SDS011;12772;49.794;10.024;2024-02-23T21:37:52;4.43;;;2.10;;
24635;SDS011;12772;49.794;10.024;2024-02-23T21:41:54;4.32;;;2.28;;
24635;SDS011;12772;49.794;10.024;2024-02-23T21:45:56;2.53;;;2.17;;
24635;SDS011;12772;49.794;10.024;2024-02-23T21:49:58;2.45;;;2.17;;
24635;SDS011;12772;49.794;10.024;2024-02-23T21:54:00;3.00;;;2.53;;
24635;SDS011;12772;49.794;10.024;2024-02-23T21:58:02;3.55;;;2.60;;
24635;SDS011;12772;49.794;10.024;2024-02-23T22:02:05;3.90;;;2.15;;
24635;SDS011;12772;49.794;10.024;2024-02-23T22:06:07;5.07;;;2.40;;
24635;SDS011;12772;49.794;10.024;2024-02-23T22:10:09;2.55;;;2.25;;
24635;SDS011;12772;49.794;10.024;2024-02-23T22:14:11;4.13;;;2.15;;
24635;SDS011;12772;49.794;10.024;2024-02-23T22:18:13;5.50;;;2.38;;
24635;SDS011;12772;49.794;10.024;2024-02-23T22:22:15;3.10;;;2.17;;
24635;SDS011;12772;49.794;10.024;2024-02-23T22:26:18;4.50;;;2.40;;
24635;SDS011;12772;49.794;10.024;2024-02-23T22:30:20;2.53;;;2.20;;
24635;SDS011;12772;49.794;10.024;2024-02-23T22:34:22;3.67;;;2.78;;
24635;SDS011;12772;49.794;10.024;2024-02-23T22:38:24;2.95;;;2.72;;
24635;SDS011;12772;49.794;10.024;2024-02-23T22:42:26;5.13;;;2.83;;
24635;SDS011;12772;49.794;10.024;2024-02-23T22:46:28;3.65;;;2.30;;
24635;SDS011;12772;49.794;10.024;2024-02-23T22:50:30;2.63;;;1.80;;
24635;SDS011;12772;49.794;10.024;2024-02-23T22:54:33;2.60;;;2.10;;
24635;SDS011;12772;49.794;10.024;2024-02-23T22:58:35;1.70;;;1.60;;
24635;SDS011;12772;49.794;10.024;2024-02-23T23:02:37;2.80;;;1.75;;
24635;SDS011;12772;49.794;10.024;2024-02-23T23:06:41;3.35;;;1.80;;
24635;SDS011;12772;49.794;10.024;2024-02-23T23:10:44;4.07;;;2.25;;
24635;SDS011;12772;49.794;10.024;2024-02-23T23:14:46;3.38;;;1.98;;
24635;SDS011;12772;49.794;10.024;2024-02-23T23:18:48;4.28;;;1.80;;
24635;SDS011;12772;49.794;10.024;2024-02-23T23:22:50;1.88;;;1.60;;
24635;SDS011;12772;49.794;10.024;2024-02-23T23:26:52;2.53;;;1.83;;
24635;SDS011;12772;49.794;10.024;2024-02-23T23:30:57;2.15;;;1.60;;
24635;SDS011;12772;49.794;10.024;2024-02-23T23:34:59;6.28;;;2.05;;
24635;SDS011;12772;49.794;10.024;2024-02-23T23:39:01;5.10;;;2.80;;
24635;SDS011;12772;49.794;10.024;2024-02-23T23:43:05;5.90;;;3.47;;
24635;SDS011;12772;49.794;10.024;2024-02-23T23:47:07;6.53;;;3.33;;
24635;SDS011;12772;49.794;10.024;2024-02-23T23:51:09;4.28;;;2.65;;
24635;SDS011;12772;49.794;10.024;2024-02-23T23:55:11;3.17;;;2.47;;
24635;SDS011;12772;49.794;10.024;2024-02-23T23:59:13;3.83;;;2.40;;
